createdAt,value
2019-05-06T00:01:37.945Z,131.63
2019-05-06T00:06:45.056Z,120.17
2019-05-06T00:11:54.111Z,125.97
2019-05-06T00:17:00.882Z,121.63
2019-05-06T00:22:07.917Z,106.03
2019-05-06T00:27:20.494Z,103.50
2019-05-06T00:32:27.680Z,100.47
2019-05-06T00:37:35.064Z,88.43
2019-05-06T00:43:04.809Z,102.87
2019-05-06T00:48:13.987Z,111.47
2019-05-06T00:53:23.827Z,109.17
2019-05-06T00:58:31.003Z,110.60
2019-05-06T01:03:38.709Z,105.13
2019-05-06T01:08:45.986Z,104.40
2019-05-06T01:14:18.396Z,87.40
2019-05-06T01:19:25.899Z,77.50
2019-05-06T01:24:34.501Z,84.33
2019-05-06T01:29:44.028Z,89.60
2019-05-06T01:34:50.791Z,83.40
2019-05-06T01:40:18.056Z,82.60
2019-05-06T01:45:25.479Z,90.90
2019-05-06T01:50:34.431Z,81.33
2019-05-06T01:55:43.727Z,80.83
2019-05-06T02:00:51.077Z,91.43
2019-05-06T02:05:58.272Z,87.13
2019-05-06T02:11:05.984Z,75.67
2019-05-06T02:16:14.562Z,67.27
2019-05-06T02:21:40.848Z,64.00
2019-05-06T02:26:47.972Z,70.83
2019-05-06T02:32:24.801Z,61.80
2019-05-06T02:37:31.215Z,58.75
2019-05-06T02:42:38.313Z,54.37
2019-05-06T02:47:54.430Z,45.33
2019-05-06T02:53:03.046Z,50.07
2019-05-06T02:58:10.244Z,47.27
2019-05-06T03:03:17.328Z,46.55
2019-05-06T03:08:24.727Z,42.80
2019-05-06T03:13:33.898Z,42.00
2019-05-06T03:18:43.142Z,39.47
2019-05-06T03:23:55.023Z,36.50
2019-05-06T03:29:02.918Z,33.17
2019-05-06T03:34:35.895Z,36.23
2019-05-06T03:39:19.263Z,34.83
2019-05-06T03:44:26.374Z,35.30
2019-05-06T03:49:35.951Z,32.67
2019-05-06T03:54:45.351Z,32.93
2019-05-06T03:59:55.239Z,35.17
2019-05-06T04:05:03.920Z,34.70
2019-05-06T04:10:13.712Z,39.30
2019-05-06T04:15:22.947Z,41.50
2019-05-06T04:20:45.663Z,45.30
2019-05-06T04:26:03.475Z,58.87
2019-05-06T04:31:09.833Z,57.63
2019-05-06T04:36:17.062Z,56.80
2019-05-06T04:41:26.606Z,59.13
2019-05-06T04:46:34.891Z,81.83
2019-05-06T04:51:43.103Z,76.87
2019-05-06T04:56:53.531Z,52.93
2019-05-06T05:02:02.498Z,38.13
2019-05-06T05:07:08.397Z,37.33
2019-05-06T05:12:24.828Z,38.47
2019-05-06T05:17:44.094Z,29.27
2019-05-06T05:22:52.837Z,20.33
2019-05-06T05:28:02.032Z,15.17
2019-05-06T05:33:11.678Z,17.30
2019-05-06T05:38:19.112Z,11.80
2019-05-06T05:43:52.666Z,18.37
2019-05-06T05:49:21.747Z,8.07
2019-05-06T05:54:27.258Z,17.87
2019-05-06T05:59:34.450Z,9.77
2019-05-06T06:04:53.870Z,7.70
2019-05-06T06:09:59.360Z,10.77
2019-05-06T06:15:26.204Z,9.33
2019-05-06T06:20:52.762Z,6.97
2019-05-06T06:26:03.687Z,11.90
2019-05-06T06:31:22.859Z,6.73
2019-05-06T06:36:45.261Z,5.90
2019-05-06T06:41:52.491Z,7.57
2019-05-06T06:47:01.918Z,11.97
2019-05-06T06:52:11.498Z,7.97
2019-05-06T06:57:35.507Z,4.90
2019-05-06T07:02:47.076Z,9.30
2019-05-06T07:07:54.428Z,9.97
2019-05-06T07:13:03.118Z,7.63
2019-05-06T07:18:13.286Z,8.87
2019-05-06T07:23:27.460Z,8.13
2019-05-06T07:28:34.551Z,9.67
2019-05-06T07:33:42.943Z,7.63
2019-05-06T07:38:52.406Z,9.27
2019-05-06T07:44:34.860Z,6.23
2019-05-06T07:49:43.205Z,6.07
2019-05-06T07:54:53.173Z,8.33
2019-05-06T07:59:59.386Z,7.27
2019-05-06T08:05:07.669Z,4.33
2019-05-06T08:10:16.424Z,3.73
2019-05-06T08:15:23.589Z,5.80
2019-05-06T08:20:39.925Z,3.80
2019-05-06T08:25:49.187Z,4.40
2019-05-06T08:30:56.293Z,5.83
2019-05-06T08:36:11.573Z,4.77
2019-05-06T08:41:15.869Z,5.33
2019-05-06T08:46:23.619Z,3.73
2019-05-06T08:51:53.944Z,3.73
2019-05-06T08:57:02.592Z,3.13
2019-05-06T09:02:09.992Z,5.83
2019-05-06T09:07:18.158Z,6.53
2019-05-06T09:12:25.286Z,5.43
2019-05-06T09:17:33.013Z,3.87
2019-05-06T09:22:40.279Z,4.17
2019-05-06T09:27:54.836Z,5.00
2019-05-06T09:33:02.609Z,6.87
2019-05-06T09:38:09.786Z,7.40
2019-05-06T09:43:17.053Z,4.33
2019-05-06T09:48:42.481Z,4.93
2019-05-06T09:54:12.944Z,4.63
2019-05-06T09:59:22.010Z,7.83
2019-05-06T10:04:29.756Z,4.37
2019-05-06T10:09:36.980Z,3.67
2019-05-06T10:14:44.064Z,4.03
2019-05-06T10:19:51.272Z,6.13
2019-05-06T10:24:58.383Z,5.77
2019-05-06T10:30:09.361Z,4.73
2019-05-06T10:35:18.693Z,5.70
2019-05-06T10:40:32.959Z,6.23
2019-05-06T10:45:40.195Z,4.50
2019-05-06T10:50:52.053Z,4.63
2019-05-06T10:56:02.878Z,9.37
2019-05-06T11:01:32.956Z,7.30
2019-05-06T11:06:39.232Z,6.20
2019-05-06T11:11:46.307Z,18.63
2019-05-06T11:16:53.408Z,6.90
2019-05-06T11:22:03.376Z,8.00
2019-05-06T11:27:25.218Z,4.43
2019-05-06T11:32:55.670Z,7.55
2019-05-06T11:38:06.407Z,5.27
2019-05-06T11:43:13.743Z,3.67
2019-05-06T11:48:22.215Z,10.23
2019-05-06T11:53:32.596Z,10.05
2019-05-06T11:58:54.570Z,5.83
2019-05-06T12:04:02.700Z,8.30
2019-05-06T12:09:16.361Z,6.78
2019-05-06T12:14:19.854Z,5.50
2019-05-06T12:19:27.635Z,3.83
2019-05-06T12:24:34.829Z,7.70
2019-05-06T12:29:42.854Z,3.57
2019-05-06T12:34:52.449Z,7.40
2019-05-06T12:40:03.232Z,3.23
2019-05-06T12:45:27.819Z,5.33
2019-05-06T12:50:35.031Z,4.37
2019-05-06T12:55:43.094Z,4.23
2019-05-06T13:00:53.986Z,53.20
2019-05-06T13:06:06.688Z,5.20
2019-05-06T13:11:09.099Z,4.00
2019-05-06T13:16:17.054Z,4.53
2019-05-06T13:21:24.232Z,3.60
2019-05-06T13:26:32.551Z,8.73
2019-05-06T13:31:39.813Z,5.57
2019-05-06T13:36:47.311Z,6.17
2019-05-06T13:41:56.023Z,16.10
2019-05-06T13:47:04.363Z,12.37
2019-05-06T13:52:18.243Z,13.20
2019-05-06T13:57:25.334Z,9.27
2019-05-06T14:03:01.984Z,5.70
2019-05-06T14:08:09.713Z,9.07
2019-05-06T14:13:16.933Z,23.67
2019-05-06T14:18:24.016Z,7.53
2019-05-06T14:23:32.715Z,11.73
2019-05-06T14:28:45.100Z,6.83
2019-05-06T14:33:52.355Z,3.17
2019-05-06T14:39:04.641Z,5.53
2019-05-06T14:44:12.107Z,2.67
2019-05-06T14:49:18.977Z,3.93
2019-05-06T14:54:26.048Z,6.20
2019-05-06T14:59:33.188Z,7.03
2019-05-06T15:04:43.194Z,3.27
2019-05-06T15:09:58.432Z,4.27
2019-05-06T15:14:57.794Z,13.87
2019-05-06T15:20:06.846Z,13.67
2019-05-06T15:25:14.388Z,11.48
2019-05-06T15:30:28.187Z,5.95
2019-05-06T15:35:52.844Z,3.77
2019-05-06T15:40:59.951Z,6.33
2019-05-06T15:46:07.672Z,10.63
2019-05-06T15:51:14.815Z,6.13
2019-05-06T15:56:23.082Z,5.43
2019-05-06T16:01:33.981Z,7.07
2019-05-06T16:06:44.434Z,3.07
2019-05-06T16:11:48.898Z,3.60
2019-05-06T16:16:56.014Z,5.43
2019-05-06T16:22:04.086Z,3.17
2019-05-06T16:27:12.410Z,9.37
2019-05-06T16:32:21.848Z,4.60
2019-05-06T16:37:28.876Z,3.67
2019-05-06T16:42:35.974Z,7.57
2019-05-06T16:47:44.819Z,3.45
2019-05-06T16:52:52.583Z,4.17
2019-05-06T16:58:05.350Z,6.80
2019-05-06T17:03:23.671Z,4.55
2019-05-06T17:08:33.316Z,4.87
2019-05-06T17:13:39.643Z,5.70
2019-05-06T17:18:46.769Z,4.70
2019-05-06T17:23:53.912Z,5.87
2019-05-06T17:29:25.327Z,15.30
2019-05-06T17:34:35.894Z,7.33
2019-05-06T17:39:43.482Z,8.07
2019-05-06T17:44:50.704Z,10.47
2019-05-06T17:49:57.856Z,5.90
2019-05-06T17:55:06.495Z,15.28
2019-05-06T18:00:14.538Z,12.93
2019-05-06T18:05:22.816Z,9.83
2019-05-06T18:10:30.021Z,45.85
2019-05-06T18:15:37.174Z,54.93
2019-05-06T18:20:44.677Z,19.80
2019-05-06T18:25:52.453Z,23.10
2019-05-06T18:31:02.922Z,18.60
2019-05-06T18:36:09.508Z,20.00
2019-05-06T18:41:16.744Z,16.03
2019-05-06T18:46:23.831Z,6.77
2019-05-06T18:51:31.236Z,4.63
2019-05-06T18:56:38.492Z,7.13
2019-05-06T19:01:45.618Z,14.87
2019-05-06T19:07:08.776Z,9.27
2019-05-06T19:12:03.554Z,32.90
2019-05-06T19:17:10.496Z,22.93
2019-05-06T19:22:17.632Z,29.63
2019-05-06T19:27:25.035Z,24.87
2019-05-06T19:32:34.929Z,12.67
2019-05-06T19:37:41.390Z,20.03
2019-05-06T19:42:50.244Z,28.73
2019-05-06T19:47:57.201Z,24.37
2019-05-06T19:53:04.342Z,20.43
2019-05-06T19:58:12.978Z,15.53
2019-05-06T20:03:23.130Z,16.37
2019-05-06T20:08:45.387Z,11.87
2019-05-06T20:13:52.609Z,15.80
2019-05-06T20:19:02.139Z,25.40
2019-05-06T20:24:09.609Z,14.00
2019-05-06T20:29:16.738Z,15.10
2019-05-06T20:34:24.851Z,17.80
2019-05-06T20:39:32.511Z,9.77
2019-05-06T20:44:39.647Z,12.77
2019-05-06T20:49:46.742Z,41.73
2019-05-06T20:54:53.842Z,24.27
2019-05-06T21:00:03.447Z,13.87
2019-05-06T21:05:10.843Z,5.67
2019-05-06T21:10:18.985Z,16.73
2019-05-06T21:15:26.196Z,36.37
2019-05-06T21:20:33.562Z,9.70
2019-05-06T21:25:42.922Z,23.70
2019-05-06T21:30:49.478Z,56.10
2019-05-06T21:35:56.537Z,40.57
2019-05-06T21:41:03.605Z,18.93
2019-05-06T21:46:12.984Z,13.65
2019-05-06T21:51:22.086Z,12.07
2019-05-06T21:56:28.704Z,13.27
2019-05-06T22:01:36.911Z,16.33
2019-05-06T22:06:45.592Z,13.03
2019-05-06T22:11:53.225Z,11.73
2019-05-06T22:17:03.890Z,8.93
2019-05-06T22:22:12.031Z,12.57
2019-05-06T22:27:22.016Z,12.43
2019-05-06T22:32:29.567Z,8.30
2019-05-06T22:37:36.849Z,14.67
2019-05-06T22:42:44.663Z,8.57
2019-05-06T22:47:56.731Z,10.37
2019-05-06T22:53:04.277Z,8.03
2019-05-06T22:58:12.037Z,6.35
2019-05-06T23:03:22.701Z,7.40
2019-05-06T23:08:32.329Z,38.40
2019-05-06T23:13:38.996Z,9.00
2019-05-06T23:18:46.118Z,22.17
2019-05-06T23:23:54.707Z,15.17
2019-05-06T23:29:02.564Z,13.90
2019-05-06T23:34:09.722Z,13.20
2019-05-06T23:40:03.332Z,8.33
2019-05-06T23:45:45.626Z,6.50
2019-05-06T23:51:28.498Z,4.23
2019-05-06T23:56:43.823Z,4.60
